Time;durP1;ratioP1;P1;durP2;ratioP2;P2;SDS_P1;SDS_P2;PMS_P1;PMS_P2;Temp;Humidity;BMP_temperature;BMP_pressure;BME280_temperature;BME280_humidity;BME280_pressure;Samples;Min_cycle;Max_cycle;Signal;HPM_P1;HPM_P2
2021/07/20 00:00:16;;;;;;;13.23;6.32;;;21.00;66.20;;;;;;5016152;28;20025;-72
2021/07/20 00:02:44;;;;;;;11.77;6.30;;;21.00;65.90;;;;;;5014554;28;20474;-72
2021/07/20 00:05:12;;;;;;;9.80;5.47;;;21.00;66.00;;;;;;5014867;28;20026;-72
2021/07/20 00:07:38;;;;;;;9.68;5.88;;;21.00;65.90;;;;;;5014900;28;20072;-72
2021/07/20 00:10:17;;;;;;;11.80;5.85;;;20.90;66.00;;;;;;5015400;28;20489;-72
2021/07/20 00:12:43;;;;;;;12.68;6.20;;;20.90;66.40;;;;;;5038238;28;20489;-72
2021/07/20 00:15:11;;;;;;;9.35;6.18;;;20.90;66.50;;;;;;5021638;28;20040;-72
2021/07/20 00:17:40;;;;;;;11.90;6.70;;;20.90;67.30;;;;;;5019616;28;20041;-72
2021/07/20 00:20:06;;;;;;;10.60;6.28;;;20.90;67.70;;;;;;5030405;28;20050;-72
2021/07/20 00:22:32;;;;;;;13.18;6.68;;;20.90;68.10;;;;;;5026622;28;20039;-71
2021/07/20 00:24:58;;;;;;;8.52;5.60;;;20.90;68.40;;;;;;5014119;28;20101;-72
2021/07/20 00:27:23;;;;;;;9.43;5.78;;;20.90;68.40;;;;;;5037633;28;20033;-72
2021/07/20 00:29:49;;;;;;;9.45;5.40;;;20.90;68.40;;;;;;5016162;28;20022;-72
2021/07/20 00:32:15;;;;;;;9.15;5.45;;;20.90;67.40;;;;;;5025498;28;20033;-72
2021/07/20 00:34:41;;;;;;;10.30;6.15;;;20.90;67.20;;;;;;5014322;28;20026;-72
2021/07/20 00:37:07;;;;;;;10.77;6.07;;;20.90;67.10;;;;;;5033278;28;20380;-72
2021/07/20 00:39:33;;;;;;;12.50;5.75;;;20.90;67.20;;;;;;5029447;28;20030;-72
2021/07/20 00:41:59;;;;;;;8.77;5.30;;;20.90;66.50;;;;;;5027084;28;20179;-72
2021/07/20 00:44:25;;;;;;;7.82;4.70;;;20.80;65.90;;;;;;5020020;28;20112;-72
2021/07/20 00:46:52;;;;;;;8.55;4.80;;;20.80;65.70;;;;;;5028414;28;20052;-72
2021/07/20 00:49:17;;;;;;;8.52;4.82;;;20.80;65.70;;;;;;5024352;28;20408;-72
2021/07/20 00:51:43;;;;;;;9.68;4.85;;;20.80;65.70;;;;;;5013188;28;20042;-72
2021/07/20 00:54:10;;;;;;;10.23;4.97;;;20.80;65.80;;;;;;5041206;28;20029;-72
2021/07/20 00:56:36;;;;;;;10.00;5.07;;;20.80;65.50;;;;;;5012365;28;20036;-72
2021/07/20 00:59:03;;;;;;;9.20;4.93;;;20.80;65.80;;;;;;5032076;28;20033;-72
2021/07/20 01:01:30;;;;;;;14.13;5.18;;;20.80;65.70;;;;;;5020674;28;20026;-72
2021/07/20 01:03:57;;;;;;;10.68;4.95;;;20.80;66.40;;;;;;5031047;28;20096;-72
2021/07/20 01:06:28;;;;;;;8.27;5.03;;;20.80;65.70;;;;;;5022708;28;20071;-72
2021/07/20 01:08:57;;;;;;;8.35;5.18;;;20.80;65.70;;;;;;5021958;28;20044;-72
2021/07/20 01:11:26;;;;;;;10.32;4.72;;;20.80;65.90;;;;;;5034816;28;20026;-72
2021/07/20 01:13:53;;;;;;;10.60;5.32;;;20.80;66.00;;;;;;5024229;28;20431;-72
2021/07/20 01:16:23;;;;;;;7.70;4.50;;;20.80;66.80;;;;;;5020984;28;20474;-72
2021/07/20 01:18:51;;;;;;;8.38;5.25;;;20.70;66.40;;;;;;5029398;28;20046;-72
2021/07/20 01:21:19;;;;;;;13.05;5.40;;;20.70;66.60;;;;;;5025392;28;20019;-72
2021/07/20 01:23:50;;;;;;;9.57;5.38;;;20.70;66.90;;;;;;5018741;28;20036;-72
2021/07/20 01:26:19;;;;;;;10.27;5.17;;;20.70;67.30;;;;;;5021442;28;20037;-72
2021/07/20 01:28:48;;;;;;;8.85;5.22;;;20.70;67.30;;;;;;5017155;28;20014;-72
2021/07/20 01:31:18;;;;;;;13.23;5.50;;;20.80;67.30;;;;;;5014493;28;20045;-72
2021/07/20 01:33:49;;;;;;;7.65;4.90;;;20.80;67.10;;;;;;5010739;28;20029;-72
2021/07/20 01:36:20;;;;;;;11.80;5.32;;;20.70;66.80;;;;;;5015078;28;20034;-72
2021/07/20 01:38:51;;;;;;;10.48;5.05;;;20.70;66.80;;;;;;5020509;28;20038;-72
2021/07/20 01:41:18;;;;;;;10.70;5.10;;;20.60;66.90;;;;;;5015786;28;20073;-72
2021/07/20 01:43:52;;;;;;;10.52;5.30;;;20.70;67.00;;;;;;5020380;28;20021;-72
2021/07/20 01:46:20;;;;;;;13.25;5.32;;;20.70;67.10;;;;;;5019183;28;20474;-72
2021/07/20 01:48:50;;;;;;;7.85;4.70;;;20.70;67.30;;;;;;5018932;28;20044;-72
2021/07/20 01:51:21;;;;;;;10.70;5.07;;;20.70;66.80;;;;;;5029512;28;20377;-72
2021/07/20 01:53:49;;;;;;;12.02;5.78;;;20.70;66.50;;;;;;5027830;28;20048;-72
2021/07/20 01:56:18;;;;;;;8.10;4.85;;;20.70;66.20;;;;;;5015490;28;20393;-72
2021/07/20 01:58:44;;;;;;;11.77;4.80;;;20.70;66.20;;;;;;5020457;28;20378;-72
2021/07/20 02:02:00;;;;;;;7.68;4.50;;;20.70;66.10;;;;;;4992556;28;20038;-72
2021/07/20 02:10:42;;;;;;;8.05;4.18;;;20.60;66.40;;;;;;4997843;28;20034;-72
2021/07/20 02:13:19;;;;;;;9.00;4.57;;;20.60;66.80;;;;;;5026723;28;20065;-72
2021/07/20 02:16:00;;;;;;;9.40;4.97;;;20.60;67.20;;;;;;5026793;28;20068;-72
2021/07/20 02:18:29;;;;;;;9.77;4.32;;;20.60;67.40;;;;;;5029801;28;20049;-72
2021/07/20 02:21:05;;;;;;;7.78;4.80;;;20.50;67.50;;;;;;5021134;28;20507;-72
2021/07/20 02:23:39;;;;;;;9.20;4.90;;;20.60;67.50;;;;;;5011292;28;20049;-72
2021/07/20 02:26:06;;;;;;;8.93;5.10;;;20.60;67.90;;;;;;5015035;28;20428;-72
2021/07/20 02:28:36;;;;;;;9.35;4.55;;;20.60;68.40;;;;;;5017898;28;20029;-72
2021/07/20 02:31:04;;;;;;;11.55;5.03;;;20.50;68.70;;;;;;5025100;28;20501;-72
2021/07/20 02:33:36;;;;;;;11.90;5.97;;;20.60;68.70;;;;;;5019120;28;20497;-72
2021/07/20 02:36:05;;;;;;;11.68;4.75;;;20.60;68.90;;;;;;5022455;28;20088;-72
2021/07/20 02:38:39;;;;;;;9.53;5.47;;;20.60;68.70;;;;;;5012253;28;20453;-72
2021/07/20 02:41:06;;;;;;;9.32;5.13;;;20.60;68.60;;;;;;5020477;28;20115;-72
2021/07/20 02:43:34;;;;;;;8.95;5.50;;;20.50;68.70;;;;;;5010832;28;20026;-72
2021/07/20 02:46:05;;;;;;;8.20;4.57;;;20.50;68.90;;;;;;5038960;28;20033;-72
2021/07/20 02:48:35;;;;;;;9.95;4.78;;;20.50;69.30;;;;;;5025638;28;20030;-72
2021/07/20 02:51:02;;;;;;;10.32;4.68;;;20.50;70.00;;;;;;5015388;28;20022;-72
2021/07/20 02:53:42;;;;;;;11.25;4.90;;;20.50;70.80;;;;;;5014962;28;20034;-72
2021/07/20 02:56:11;;;;;;;8.25;4.57;;;20.40;71.10;;;;;;5030263;28;20022;-72
2021/07/20 02:58:48;;;;;;;9.05;5.07;;;20.40;71.20;;;;;;5022481;28;20057;-72
2021/07/20 03:01:25;;;;;;;9.07;4.85;;;20.40;71.30;;;;;;5018438;28;20029;-72
2021/07/20 03:03:52;;;;;;;10.68;5.30;;;20.40;71.10;;;;;;5024537;28;20037;-72
2021/07/20 03:06:23;;;;;;;13.27;6.40;;;20.40;71.10;;;;;;5028494;28;20144;-72
2021/07/20 03:08:53;;;;;;;9.85;5.38;;;20.30;71.10;;;;;;5032641;28;20032;-72
2021/07/20 03:11:38;;;;;;;9.80;5.35;;;20.30;71.10;;;;;;5016675;28;20126;-72
2021/07/20 03:14:10;;;;;;;11.43;5.53;;;20.40;71.40;;;;;;5013830;28;20456;-72
2021/07/20 03:16:44;;;;;;;14.70;5.72;;;20.30;71.30;;;;;;5016098;28;20029;-72
2021/07/20 03:19:15;;;;;;;10.38;5.88;;;20.30;71.40;;;;;;5016886;28;20054;-72
2021/07/20 03:21:43;;;;;;;9.73;5.40;;;20.40;71.50;;;;;;5021120;28;20026;-72
2021/07/20 03:24:11;;;;;;;10.50;5.28;;;20.40;71.30;;;;;;5025783;28;20037;-72
2021/07/20 03:26:40;;;;;;;9.30;4.90;;;20.30;71.00;;;;;;5020191;28;20022;-72
2021/07/20 03:29:09;;;;;;;9.20;4.72;;;20.30;71.00;;;;;;5032697;28;20056;-72
2021/07/20 03:31:35;;;;;;;12.13;5.43;;;20.30;71.20;;;;;;5018677;28;20029;-72
2021/07/20 03:34:04;;;;;;;13.20;5.55;;;20.20;71.30;;;;;;5032812;28;20026;-72
2021/07/20 03:36:39;;;;;;;13.43;5.38;;;20.20;71.50;;;;;;5020357;28;20141;-72
2021/07/20 03:39:07;;;;;;;10.23;5.35;;;20.20;71.80;;;;;;5027345;28;20535;-72
2021/07/20 03:41:35;;;;;;;10.95;5.57;;;20.20;71.60;;;;;;5026932;28;20037;-72
2021/07/20 03:44:02;;;;;;;10.45;5.20;;;20.20;71.40;;;;;;5018223;28;20026;-72
2021/07/20 03:46:30;;;;;;;11.88;5.68;;;20.20;71.50;;;;;;5036542;28;20034;-72
2021/07/20 03:48:57;;;;;;;11.65;6.07;;;20.10;71.60;;;;;;5013523;28;20030;-72
2021/07/20 03:51:36;;;;;;;10.75;5.68;;;20.20;71.70;;;;;;5015464;28;20076;-72
2021/07/20 03:54:04;;;;;;;9.32;5.57;;;20.10;72.10;;;;;;5016444;28;20025;-72
2021/07/20 03:56:33;;;;;;;12.25;6.18;;;20.10;72.40;;;;;;5013944;28;20105;-72
2021/07/20 03:59:00;;;;;;;21.42;6.43;;;20.10;72.40;;;;;;5028309;28;20095;-72
2021/07/20 04:01:34;;;;;;;12.75;5.97;;;20.10;72.50;;;;;;5018649;28;20065;-72
2021/07/20 04:04:08;;;;;;;11.07;5.65;;;20.10;72.30;;;;;;5020830;28;20026;-72
2021/07/20 04:06:59;;;;;;;10.45;5.28;;;20.10;72.30;;;;;;5016331;28;20104;-72
2021/07/20 04:09:29;;;;;;;11.63;6.10;;;20.10;72.40;;;;;;5024600;28;20128;-72
2021/07/20 04:12:15;;;;;;;11.13;5.55;;;20.10;72.70;;;;;;5014685;28;20436;-72
2021/07/20 04:15:01;;;;;;;16.63;5.88;;;20.10;73.10;;;;;;5020695;28;20385;-72
2021/07/20 04:17:35;;;;;;;11.65;5.68;;;20.00;73.70;;;;;;5030508;28;20103;-72
2021/07/20 04:20:04;;;;;;;12.15;6.55;;;20.10;73.40;;;;;;5037923;28;20026;-72
2021/07/20 04:22:32;;;;;;;12.07;6.20;;;20.00;73.40;;;;;;5014912;28;20041;-72
2021/07/20 04:24:59;;;;;;;10.30;6.18;;;20.00;73.30;;;;;;5013528;28;20489;-72
2021/07/20 04:27:36;;;;;;;11.18;5.78;;;20.00;73.40;;;;;;5024948;28;20477;-72
2021/07/20 04:30:04;;;;;;;12.70;6.20;;;20.00;73.40;;;;;;5011826;28;20018;-72
2021/07/20 04:32:39;;;;;;;10.05;5.57;;;20.00;73.40;;;;;;5021459;28;20116;-72
2021/07/20 04:35:10;;;;;;;10.98;5.80;;;20.00;73.70;;;;;;5018334;28;20066;-72
2021/07/20 04:37:42;;;;;;;9.77;5.78;;;20.00;73.60;;;;;;5029141;28;20033;-72
2021/07/20 04:40:11;;;;;;;12.27;6.07;;;20.00;73.70;;;;;;5022368;28;20030;-72
2021/07/20 04:42:37;;;;;;;12.00;5.93;;;20.00;73.70;;;;;;5016568;28;20034;-72
2021/07/20 04:45:08;;;;;;;12.25;5.53;;;20.00;73.60;;;;;;5032110;28;20044;-73
2021/07/20 04:47:41;;;;;;;9.77;5.55;;;20.00;73.50;;;;;;5016966;28;20036;-72
2021/07/20 04:50:27;;;;;;;12.63;6.25;;;19.90;73.40;;;;;;5011994;28;20049;-72
2021/07/20 04:52:55;;;;;;;11.80;6.13;;;20.00;73.30;;;;;;5011828;28;20046;-72
2021/07/20 04:55:22;;;;;;;10.98;6.40;;;20.00;73.20;;;;;;5022374;28;20037;-72
2021/07/20 04:57:55;;;;;;;11.75;5.82;;;20.00;73.10;;;;;;5027280;28;20040;-72
2021/07/20 05:00:22;;;;;;;12.18;5.80;;;20.00;73.10;;;;;;5029696;28;20115;-72
2021/07/20 05:02:49;;;;;;;14.48;6.05;;;20.00;73.10;;;;;;5023315;28;20030;-72
2021/07/20 05:05:22;;;;;;;15.23;6.30;;;20.00;73.40;;;;;;5028062;28;20029;-72
2021/07/20 05:07:51;;;;;;;12.88;6.50;;;20.00;73.40;;;;;;5024435;28;20851;-72
2021/07/20 05:10:17;;;;;;;10.65;6.10;;;20.00;73.40;;;;;;5029675;28;20021;-72
2021/07/20 05:13:02;;;;;;;12.75;6.38;;;20.00;73.60;;;;;;5025566;28;20502;-72
2021/07/20 05:15:28;;;;;;;13.50;5.93;;;20.00;73.50;;;;;;5013393;28;20347;-72
2021/07/20 05:17:57;;;;;;;12.07;5.90;;;20.00;73.60;;;;;;5012915;28;20062;-72
2021/07/20 05:20:30;;;;;;;14.77;6.85;;;20.00;74.40;;;;;;5018031;28;20029;-72
2021/07/20 05:23:05;;;;;;;13.63;6.22;;;20.00;73.90;;;;;;5012432;28;20037;-72
2021/07/20 05:25:32;;;;;;;12.73;6.50;;;20.00;73.90;;;;;;5023276;28;20026;-72
2021/07/20 05:28:00;;;;;;;16.38;6.45;;;20.00;74.00;;;;;;5025235;28;20021;-72
2021/07/20 05:30:29;;;;;;;14.10;6.63;;;20.00;74.20;;;;;;5005883;28;20489;-73
2021/07/20 05:32:57;;;;;;;13.95;6.45;;;20.00;74.10;;;;;;5016870;28;20042;-72
2021/07/20 05:35:34;;;;;;;14.27;6.82;;;20.00;74.30;;;;;;5023090;28;20073;-71
2021/07/20 05:38:01;;;;;;;14.95;6.47;;;20.00;74.00;;;;;;5025635;28;20026;-72
2021/07/20 05:40:27;;;;;;;14.27;6.07;;;20.00;74.00;;;;;;5014344;28;20549;-72
2021/07/20 05:42:57;;;;;;;11.18;5.38;;;20.00;73.90;;;;;;5019695;28;20209;-72
2021/07/20 05:45:31;;;;;;;12.35;5.80;;;20.00;73.80;;;;;;5026570;28;20022;-72
2021/07/20 05:47:58;;;;;;;12.35;6.65;;;20.00;73.70;;;;;;5018356;28;20033;-72
2021/07/20 05:50:26;;;;;;;12.60;6.68;;;20.00;73.80;;;;;;5019606;28;20025;-72
2021/07/20 05:53:11;;;;;;;14.68;6.63;;;20.00;73.80;;;;;;5022893;28;20076;-72
2021/07/20 05:55:38;;;;;;;15.00;7.07;;;20.10;74.10;;;;;;5030025;28;20075;-72
2021/07/20 05:58:06;;;;;;;17.38;7.13;;;20.10;74.00;;;;;;5017848;28;20475;-72
2021/07/20 06:00:32;;;;;;;10.80;6.03;;;20.10;73.80;;;;;;5018600;28;20517;-72
2021/07/20 06:03:04;;;;;;;11.20;5.90;;;20.10;73.80;;;;;;5014154;28;20034;-72
2021/07/20 06:05:30;;;;;;;11.50;5.72;;;20.10;73.50;;;;;;5012154;28;20030;-72
2021/07/20 06:07:56;;;;;;;13.10;6.75;;;20.10;73.40;;;;;;5011893;28;20140;-72
2021/07/20 06:10:23;;;;;;;16.17;6.78;;;20.10;73.10;;;;;;5017262;28;20049;-72
2021/07/20 06:12:50;;;;;;;10.18;5.75;;;20.10;73.00;;;;;;5025322;28;20078;-76
2021/07/20 06:15:17;;;;;;;13.20;5.53;;;20.10;73.20;;;;;;5015104;28;20506;-74
2021/07/20 06:17:44;;;;;;;11.02;4.95;;;20.10;73.40;;;;;;5016423;28;20045;-70
2021/07/20 06:20:12;;;;;;;11.35;5.65;;;20.20;73.20;;;;;;5018433;28;20032;-70
2021/07/20 06:22:43;;;;;;;12.30;5.70;;;20.10;73.00;;;;;;5014167;28;20105;-72
2021/07/20 06:25:13;;;;;;;12.18;5.55;;;20.20;73.10;;;;;;5019830;28;20029;-72
2021/07/20 06:27:40;;;;;;;9.10;4.97;;;20.20;73.00;;;;;;5028454;28;20144;-76
2021/07/20 06:30:07;;;;;;;8.50;4.90;;;20.20;72.90;;;;;;5023790;28;20025;-74
2021/07/20 06:32:33;;;;;;;13.30;5.28;;;20.20;72.50;;;;;;5020340;28;20044;-72
2021/07/20 06:34:59;;;;;;;12.07;5.72;;;20.20;72.30;;;;;;5017534;28;20030;-70
2021/07/20 06:37:25;;;;;;;11.10;4.80;;;20.20;72.20;;;;;;5009847;28;20084;-70
2021/07/20 06:39:52;;;;;;;11.35;5.80;;;20.30;72.40;;;;;;5013085;28;20034;-71
2021/07/20 06:42:19;;;;;;;10.05;5.57;;;20.20;72.40;;;;;;5010990;28;20029;-70
2021/07/20 06:44:45;;;;;;;9.55;4.38;;;20.20;72.20;;;;;;5018065;28;20014;-71
2021/07/20 06:47:16;;;;;;;12.60;5.30;;;20.30;72.30;;;;;;5020343;28;20048;-70
2021/07/20 06:49:46;;;;;;;12.23;5.78;;;20.30;71.90;;;;;;5021629;28;20397;-70
2021/07/20 06:52:15;;;;;;;12.00;4.97;;;20.30;71.80;;;;;;5015011;28;20398;-70
2021/07/20 06:54:41;;;;;;;9.25;5.30;;;20.30;71.10;;;;;;5016833;28;20393;-71
2021/07/20 06:57:12;;;;;;;10.52;5.55;;;20.30;71.10;;;;;;5022072;28;20034;-71
2021/07/20 06:59:40;;;;;;;12.35;5.18;;;20.30;70.50;;;;;;5019346;28;20421;-71
2021/07/20 07:02:09;;;;;;;11.63;5.07;;;20.40;70.60;;;;;;5018275;28;20458;-71
2021/07/20 07:04:46;;;;;;;8.35;4.97;;;20.40;70.10;;;;;;5011157;28;20041;-71
2021/07/20 07:07:13;;;;;;;7.25;4.30;;;20.50;69.70;;;;;;5013475;28;20486;-71
2021/07/20 07:09:41;;;;;;;8.23;4.50;;;20.50;69.40;;;;;;5014333;28;20062;-71
2021/07/20 07:12:07;;;;;;;8.02;4.88;;;20.50;69.10;;;;;;5013051;28;20068;-74
2021/07/20 07:14:35;;;;;;;10.23;5.00;;;20.60;69.10;;;;;;5014507;28;20091;-73
2021/07/20 07:17:03;;;;;;;12.48;5.60;;;20.60;68.60;;;;;;5017592;28;20531;-71
2021/07/20 07:19:29;;;;;;;10.32;5.80;;;20.70;68.10;;;;;;5021678;28;20053;-70
2021/07/20 07:21:55;;;;;;;9.52;5.00;;;20.70;67.50;;;;;;5013657;28;20075;-69
2021/07/20 07:24:22;;;;;;;10.00;5.22;;;20.80;67.00;;;;;;5015362;28;20018;-69
2021/07/20 07:26:51;;;;;;;10.35;5.35;;;20.80;66.80;;;;;;5010842;28;20030;-69
2021/07/20 07:29:18;;;;;;;11.18;5.10;;;20.90;65.90;;;;;;5013553;28;20659;-70
2021/07/20 07:31:47;;;;;;;9.30;5.07;;;20.90;65.50;;;;;;5011797;28;20104;-70
2021/07/20 07:34:13;;;;;;;8.73;5.10;;;20.90;65.90;;;;;;5016495;28;20034;-72
2021/07/20 07:36:43;;;;;;;12.23;5.78;;;21.00;66.30;;;;;;5017287;28;20152;-72
2021/07/20 07:39:11;;;;;;;10.10;5.53;;;21.00;66.10;;;;;;5015125;28;20029;-71
2021/07/20 07:41:39;;;;;;;10.35;5.05;;;21.10;65.90;;;;;;5020034;28;20061;-70
2021/07/20 07:44:07;;;;;;;10.23;5.13;;;21.10;65.20;;;;;;5022356;28;20033;-69
2021/07/20 07:46:37;;;;;;;9.27;4.72;;;21.10;65.90;;;;;;5017077;28;20034;-70
2021/07/20 07:49:03;;;;;;;11.02;5.05;;;21.10;66.40;;;;;;5020527;28;20018;-69
2021/07/20 07:51:30;;;;;;;9.50;5.72;;;21.20;66.60;;;;;;5014547;28;20053;-69
2021/07/20 07:53:58;;;;;;;8.63;4.68;;;21.30;67.00;;;;;;5021126;28;20072;-70
2021/07/20 07:56:31;;;;;;;6.88;3.88;;;21.20;66.70;;;;;;5027981;28;20056;-69
2021/07/20 07:58:59;;;;;;;7.00;4.35;;;21.20;65.50;;;;;;5013926;28;20029;-70
2021/07/20 08:01:26;;;;;;;9.20;3.95;;;21.20;64.60;;;;;;5013942;28;20026;-70
2021/07/20 08:03:57;;;;;;;5.72;3.47;;;21.30;64.10;;;;;;5035074;28;20029;-70
2021/07/20 08:06:25;;;;;;;8.38;3.40;;;21.30;64.00;;;;;;5014780;28;20033;-69
2021/07/20 08:08:58;;;;;;;5.97;3.67;;;21.40;63.80;;;;;;5019137;28;20061;-70
2021/07/20 08:11:26;;;;;;;6.78;4.00;;;21.40;62.90;;;;;;5020437;28;20033;-69
2021/07/20 08:13:53;;;;;;;6.63;3.28;;;21.40;62.70;;;;;;5020934;28;20121;-70
2021/07/20 08:16:21;;;;;;;8.77;3.47;;;21.50;62.30;;;;;;5022338;28;20029;-70
2021/07/20 08:18:47;;;;;;;6.55;2.80;;;21.50;62.80;;;;;;5038122;28;20064;-69
2021/07/20 08:21:14;;;;;;;7.47;3.22;;;21.50;62.80;;;;;;5017660;28;20084;-68
2021/07/20 08:23:44;;;;;;;5.20;3.22;;;21.50;62.80;;;;;;5019827;28;20084;-67
2021/07/20 08:26:19;;;;;;;5.70;3.30;;;21.50;62.30;;;;;;5025867;28;20136;-69
2021/07/20 08:29:08;;;;;;;5.25;3.38;;;21.60;62.70;;;;;;5013634;28;20710;-70
2021/07/20 08:31:53;;;;;;;6.35;3.33;;;21.60;62.70;;;;;;5013257;28;20030;-67
2021/07/20 08:34:22;;;;;;;6.15;3.80;;;21.60;62.30;;;;;;5022288;28;20055;-67
2021/07/20 08:36:49;;;;;;;8.43;3.85;;;21.60;61.90;;;;;;5024747;28;20104;-67
2021/07/20 08:39:17;;;;;;;14.07;5.25;;;21.60;61.40;;;;;;5021296;28;20404;-67
2021/07/20 08:42:07;;;;;;;7.25;3.42;;;21.60;61.00;;;;;;5008219;28;20477;-67
2021/07/20 08:44:56;;;;;;;4.90;2.97;;;21.70;61.40;;;;;;5022698;28;20071;-67
2021/07/20 08:47:26;;;;;;;6.78;3.45;;;21.70;61.50;;;;;;5019200;28;20037;-69
2021/07/20 08:49:55;;;;;;;6.90;3.47;;;21.80;62.90;;;;;;5020504;28;20021;-68
2021/07/20 08:52:29;;;;;;;9.30;3.88;;;21.80;64.70;;;;;;5016782;28;20045;-68
2021/07/20 08:54:59;;;;;;;5.18;3.33;;;21.80;65.00;;;;;;5018600;28;20032;-69
2021/07/20 08:57:35;;;;;;;8.82;3.55;;;21.90;65.40;;;;;;5015872;28;20034;-70
2021/07/20 09:00:12;;;;;;;8.07;3.95;;;21.90;65.70;;;;;;5019355;28;20046;-68
2021/07/20 09:02:47;;;;;;;9.13;4.50;;;21.90;64.70;;;;;;5022034;28;20036;-68
2021/07/20 09:05:13;;;;;;;6.85;3.45;;;21.90;64.80;;;;;;5015971;28;20483;-69
2021/07/20 09:07:43;;;;;;;7.53;3.83;;;21.90;64.80;;;;;;5023135;28;20096;-68
2021/07/20 09:10:12;;;;;;;7.68;3.90;;;22.00;65.00;;;;;;5025123;28;20114;-68
2021/07/20 09:12:46;;;;;;;8.93;4.00;;;22.00;65.80;;;;;;5023037;28;20041;-69
2021/07/20 09:15:25;;;;;;;9.57;4.43;;;22.10;66.50;;;;;;5023190;28;20030;-69
2021/07/20 09:18:16;;;;;;;8.18;3.88;;;22.10;66.80;;;;;;5022738;28;20049;-68
2021/07/20 09:20:45;;;;;;;6.75;3.83;;;22.20;67.20;;;;;;5024711;28;20032;-68
2021/07/20 09:23:23;;;;;;;8.55;4.47;;;22.20;67.00;;;;;;5024591;28;20056;-69
2021/07/20 09:26:28;;;;;;;6.65;3.60;;;22.20;66.50;;;;;;5021842;28;20040;-69
2021/07/20 09:29:14;;;;;;;5.75;3.78;;;22.30;66.90;;;;;;5018861;28;20096;-68
2021/07/20 09:32:07;;;;;;;5.32;3.05;;;22.30;67.70;;;;;;5022607;28;20056;-69
2021/07/20 09:34:54;;;;;;;7.57;3.90;;;22.30;68.30;;;;;;5022582;28;20057;-69
2021/07/20 09:37:33;;;;;;;7.05;3.92;;;22.30;68.50;;;;;;5020087;28;20025;-69
2021/07/20 09:40:36;;;;;;;9.15;4.18;;;22.30;68.00;;;;;;5021843;28;20072;-68
2021/07/20 09:43:31;;;;;;;8.57;3.63;;;22.40;68.10;;;;;;5020711;28;20037;-69
2021/07/20 09:46:03;;;;;;;11.02;4.22;;;22.30;67.90;;;;;;5023073;28;20026;-69
2021/07/20 09:48:54;;;;;;;11.80;3.63;;;22.30;68.40;;;;;;5025907;28;20057;-68
2021/07/20 09:51:23;;;;;;;5.28;3.15;;;22.30;68.30;;;;;;5017267;28;20045;-74
2021/07/20 09:54:08;;;;;;;6.25;3.92;;;22.30;68.40;;;;;;5025880;28;20033;-69
2021/07/20 09:57:06;;;;;;;6.38;3.80;;;22.40;68.70;;;;;;5022173;28;20052;-68
2021/07/20 10:00:06;;;;;;;7.28;3.67;;;22.40;68.50;;;;;;5014008;28;20474;-70
2021/07/20 10:02:44;;;;;;;6.97;3.58;;;22.40;68.40;;;;;;5020293;28;20597;-70
2021/07/20 10:05:17;;;;;;;6.60;3.63;;;22.50;68.30;;;;;;5025356;28;20040;-70
2021/07/20 10:07:52;;;;;;;6.03;3.70;;;22.50;67.80;;;;;;5022167;28;20412;-70
2021/07/20 10:10:37;;;;;;;5.65;2.95;;;22.60;67.60;;;;;;5018658;28;20478;-70
2021/07/20 10:13:26;;;;;;;6.32;3.35;;;22.60;67.90;;;;;;5023063;28;20049;-73
2021/07/20 10:16:14;;;;;;;6.10;3.85;;;22.60;68.70;;;;;;5021812;28;20021;-73
2021/07/20 10:19:06;;;;;;;6.50;3.83;;;22.70;69.00;;;;;;5011327;28;20059;-73
2021/07/20 10:21:35;;;;;;;7.53;3.95;;;22.70;68.10;;;;;;5020404;28;20436;-75
2021/07/20 10:24:07;;;;;;;6.40;3.80;;;22.70;67.60;;;;;;5017200;28;20025;-70
2021/07/20 10:27:11;;;;;;;6.00;3.40;;;22.80;67.40;;;;;;5017544;28;20038;-70
2021/07/20 10:29:54;;;;;;;6.73;3.33;;;22.70;68.00;;;;;;4978737;28;20029;-70
2021/07/20 10:32:49;;;;;;;5.95;3.22;;;22.80;68.30;;;;;;5019308;28;20308;-69
2021/07/20 10:35:23;;;;;;;6.63;3.38;;;22.80;68.20;;;;;;5021837;28;20050;-71
2021/07/20 10:37:54;;;;;;;6.18;3.20;;;22.90;69.00;;;;;;5011645;28;20108;-73
2021/07/20 10:40:24;;;;;;;5.93;3.20;;;22.90;68.40;;;;;;5013762;28;20021;-73
2021/07/20 10:43:15;;;;;;;11.55;4.55;;;22.90;66.80;;;;;;5018418;28;20113;-74
2021/07/20 10:45:44;;;;;;;9.05;3.75;;;23.00;66.90;;;;;;5027087;28;20036;-72
2021/07/20 10:48:37;;;;;;;6.63;3.40;;;23.00;66.50;;;;;;5014027;28;20495;-73
2021/07/20 10:51:13;;;;;;;5.87;3.47;;;23.00;66.20;;;;;;5017143;28;20041;-72
2021/07/20 10:54:16;;;;;;;4.72;2.70;;;23.00;66.60;;;;;;5014588;28;20112;-72
2021/07/20 10:56:58;;;;;;;7.32;3.30;;;23.10;67.60;;;;;;5012559;28;20431;-73
2021/07/20 10:59:27;;;;;;;5.68;2.70;;;23.20;67.50;;;;;;5012714;28;20064;-72
2021/07/20 11:02:14;;;;;;;5.50;2.72;;;23.20;68.60;;;;;;5012426;28;20030;-72
2021/07/20 11:05:01;;;;;;;5.90;2.53;;;23.20;68.30;;;;;;5009912;28;20060;-72
2021/07/20 11:07:32;;;;;;;5.43;2.85;;;23.20;67.80;;;;;;5012019;28;20041;-73
2021/07/20 11:10:16;;;;;;;7.80;3.08;;;23.20;67.10;;;;;;5015916;28;20061;-73
2021/07/20 11:12:45;;;;;;;6.32;2.95;;;23.20;66.60;;;;;;5014495;28;20397;-72
2021/07/20 11:15:12;;;;;;;14.80;3.20;;;23.20;67.40;;;;;;5017148;28;20048;-74
2021/07/20 11:17:40;;;;;;;4.70;3.03;;;23.30;67.40;;;;;;5019073;28;20029;-73
2021/07/20 11:20:09;;;;;;;5.72;3.00;;;23.30;66.90;;;;;;5018694;28;20040;-73
2021/07/20 11:22:38;;;;;;;7.80;2.83;;;23.30;67.10;;;;;;5018091;28;20545;-73
2021/07/20 11:25:06;;;;;;;5.97;3.10;;;23.30;67.70;;;;;;5012921;28;20037;-72
2021/07/20 11:27:34;;;;;;;6.25;2.90;;;23.40;67.30;;;;;;5015743;28;20064;-74
2021/07/20 11:30:00;;;;;;;5.20;3.22;;;23.40;66.80;;;;;;5015989;28;20367;-70
2021/07/20 11:32:32;;;;;;;11.20;2.65;;;23.40;65.80;;;;;;5015630;28;20095;-72
2021/07/20 11:35:13;;;;;;;4.38;2.53;;;23.40;65.90;;;;;;5014868;28;20688;-73
2021/07/20 11:37:43;;;;;;;4.07;2.45;;;23.50;65.90;;;;;;5016584;28;20398;-72
2021/07/20 11:40:17;;;;;;;4.47;2.50;;;23.50;66.30;;;;;;5015363;28;20474;-72
2021/07/20 11:42:59;;;;;;;5.07;3.10;;;23.60;66.60;;;;;;5014847;28;20033;-71
2021/07/20 11:45:33;;;;;;;5.10;2.47;;;23.70;65.90;;;;;;5015472;28;20107;-74
2021/07/20 11:48:06;;;;;;;4.65;2.90;;;23.60;67.60;;;;;;5018259;28;20474;-74
2021/07/20 11:50:57;;;;;;;4.15;2.53;;;23.70;67.90;;;;;;5017111;28;20034;-70
2021/07/20 11:53:49;;;;;;;4.75;2.63;;;23.70;69.10;;;;;;5023941;28;20040;-71
2021/07/20 11:56:21;;;;;;;4.22;2.70;;;23.70;68.90;;;;;;5023724;28;20029;-71
2021/07/20 11:58:53;;;;;;;4.72;2.88;;;23.70;69.00;;;;;;5022781;28;20669;-71
2021/07/20 12:01:22;;;;;;;5.57;2.88;;;23.70;68.80;;;;;;5020266;28;20040;-71
2021/07/20 12:04:14;;;;;;;6.10;3.15;;;23.70;69.10;;;;;;5021233;28;20025;-71
2021/07/20 12:07:13;;;;;;;9.05;3.38;;;23.70;69.10;;;;;;5021460;28;20366;-70
2021/07/20 12:10:10;;;;;;;5.13;3.00;;;23.70;69.70;;;;;;5024662;28;20045;-70
2021/07/20 12:12:50;;;;;;;6.60;3.22;;;23.70;69.00;;;;;;5019797;28;20034;-72
2021/07/20 12:15:18;;;;;;;7.55;3.45;;;23.80;69.10;;;;;;5017540;28;20041;-71
2021/07/20 12:17:44;;;;;;;4.38;2.58;;;23.80;69.20;;;;;;5019433;28;20489;-72
2021/07/20 12:20:12;;;;;;;5.53;3.10;;;23.80;70.50;;;;;;5014971;28;20076;-72
2021/07/20 12:22:44;;;;;;;5.70;3.38;;;23.80;69.50;;;;;;5017764;28;20041;-72
2021/07/20 12:25:10;;;;;;;4.63;2.63;;;23.80;68.90;;;;;;5016961;28;20029;-71
2021/07/20 12:27:38;;;;;;;6.47;3.17;;;23.80;69.50;;;;;;5021706;28;20080;-71
2021/07/20 12:30:09;;;;;;;6.45;3.28;;;23.80;69.10;;;;;;5018639;28;20044;-71
2021/07/20 12:32:35;;;;;;;5.93;2.85;;;23.90;68.20;;;;;;5019402;28;20045;-71
2021/07/20 12:35:01;;;;;;;7.50;3.45;;;23.80;68.40;;;;;;5021112;28;20038;-71
2021/07/20 12:37:30;;;;;;;8.52;3.05;;;23.90;68.40;;;;;;5024895;28;20095;-72
2021/07/20 12:39:59;;;;;;;5.07;3.05;;;23.90;68.50;;;;;;5027453;28;20037;-71
2021/07/20 12:42:41;;;;;;;6.28;3.45;;;24.00;68.00;;;;;;5027132;28;20040;-71
2021/07/20 12:45:08;;;;;;;5.10;2.92;;;23.90;67.90;;;;;;5018482;28;20443;-72
2021/07/20 12:47:49;;;;;;;6.45;3.33;;;23.90;67.60;;;;;;5017467;28;20425;-72
2021/07/20 12:50:18;;;;;;;8.82;4.20;;;24.00;67.20;;;;;;5017977;28;20026;-72
2021/07/20 12:52:46;;;;;;;6.07;3.35;;;24.00;67.00;;;;;;5014609;28;20072;-72
2021/07/20 12:55:19;;;;;;;4.88;3.22;;;24.00;67.60;;;;;;5021689;28;20050;-72
2021/07/20 12:57:51;;;;;;;4.88;2.92;;;24.00;67.00;;;;;;5010955;28;20038;-70
2021/07/20 13:00:29;;;;;;;5.68;3.13;;;24.00;67.80;;;;;;5020829;28;20048;-69
2021/07/20 13:03:04;;;;;;;6.35;3.22;;;24.00;67.80;;;;;;5019414;28;20030;-73
2021/07/20 13:05:31;;;;;;;9.35;4.15;;;24.00;68.50;;;;;;5018274;28;20075;-72
2021/07/20 13:07:59;;;;;;;5.45;3.53;;;24.00;68.80;;;;;;5018231;28;20037;-72
2021/07/20 13:10:27;;;;;;;5.90;3.50;;;24.00;68.70;;;;;;5011637;28;20092;-73
2021/07/20 13:12:57;;;;;;;4.40;2.85;;;24.10;68.90;;;;;;5012071;28;20042;-73
2021/07/20 13:15:25;;;;;;;5.97;2.70;;;24.00;68.50;;;;;;5014083;28;20037;-73